sensor_id;sensor_type;location;lat;lon;timestamp;P1;durP1;ratioP1;P2;durP2;ratioP2
3487;SDS011;38546;48.170;11.724;2022-10-31T00:01:35;10.40;;;7.40;;
3487;SDS011;38546;48.170;11.724;2022-10-31T00:04:26;12.17;;;7.53;;
3487;SDS011;38546;48.170;11.724;2022-10-31T00:07:15;11.13;;;7.60;;
3487;SDS011;38546;48.170;11.724;2022-10-31T00:10:05;13.30;;;7.70;;
3487;SDS011;38546;48.170;11.724;2022-10-31T00:12:56;10.17;;;6.80;;
3487;SDS011;38546;48.170;11.724;2022-10-31T00:15:45;10.27;;;6.90;;
3487;SDS011;38546;48.170;11.724;2022-10-31T00:18:34;12.20;;;7.00;;
3487;SDS011;38546;48.170;11.724;2022-10-31T00:21:25;9.13;;;7.07;;
3487;SDS011;38546;48.170;11.724;2022-10-31T00:24:15;11.90;;;7.90;;
3487;SDS011;38546;48.170;11.724;2022-10-31T00:27:04;11.23;;;7.00;;
3487;SDS011;38546;48.170;11.724;2022-10-31T00:29:53;7.77;;;6.27;;
3487;SDS011;38546;48.170;11.724;2022-10-31T00:32:42;11.13;;;6.90;;
3487;SDS011;38546;48.170;11.724;2022-10-31T00:35:32;12.80;;;6.77;;
3487;SDS011;38546;48.170;11.724;2022-10-31T00:38:22;10.27;;;7.10;;
3487;SDS011;38546;48.170;11.724;2022-10-31T00:41:12;10.00;;;7.00;;
3487;SDS011;38546;48.170;11.724;2022-10-31T00:44:03;11.07;;;7.20;;
3487;SDS011;38546;48.170;11.724;2022-10-31T00:46:53;11.83;;;7.30;;
3487;SDS011;38546;48.170;11.724;2022-10-31T00:49:42;10.50;;;7.30;;
3487;SDS011;38546;48.170;11.724;2022-10-31T00:52:32;9.97;;;7.27;;
3487;SDS011;38546;48.170;11.724;2022-10-31T00:55:22;12.30;;;7.10;;
3487;SDS011;38546;48.170;11.724;2022-10-31T00:58:12;14.23;;;8.30;;
3487;SDS011;38546;48.170;11.724;2022-10-31T01:01:05;13.23;;;6.73;;
3487;SDS011;38546;48.170;11.724;2022-10-31T01:03:54;9.87;;;7.57;;
3487;SDS011;38546;48.170;11.724;2022-10-31T01:06:44;8.37;;;6.50;;
3487;SDS011;38546;48.170;11.724;2022-10-31T01:09:33;11.63;;;6.73;;
3487;SDS011;38546;48.170;11.724;2022-10-31T01:12:23;10.77;;;6.77;;
3487;SDS011;38546;48.170;11.724;2022-10-31T01:15:14;11.63;;;6.93;;
3487;SDS011;38546;48.170;11.724;2022-10-31T01:18:09;13.23;;;6.83;;
3487;SDS011;38546;48.170;11.724;2022-10-31T01:24:22;10.77;;;7.37;;
3487;SDS011;38546;48.170;11.724;2022-10-31T01:27:12;11.70;;;7.03;;
3487;SDS011;38546;48.170;11.724;2022-10-31T01:30:01;12.23;;;7.03;;
3487;SDS011;38546;48.170;11.724;2022-10-31T01:32:51;17.30;;;7.67;;
3487;SDS011;38546;48.170;11.724;2022-10-31T01:35:40;14.07;;;7.57;;
3487;SDS011;38546;48.170;11.724;2022-10-31T01:38:29;14.23;;;7.33;;
3487;SDS011;38546;48.170;11.724;2022-10-31T01:41:20;9.57;;;7.07;;
3487;SDS011;38546;48.170;11.724;2022-10-31T01:44:59;14.53;;;8.63;;
3487;SDS011;38546;48.170;11.724;2022-10-31T01:47:50;12.60;;;7.40;;
3487;SDS011;38546;48.170;11.724;2022-10-31T01:50:39;15.60;;;6.70;;
3487;SDS011;38546;48.170;11.724;2022-10-31T01:53:30;10.20;;;6.50;;
3487;SDS011;38546;48.170;11.724;2022-10-31T01:56:21;8.83;;;6.03;;
3487;SDS011;38546;48.170;11.724;2022-10-31T01:59:11;10.80;;;6.50;;
3487;SDS011;38546;48.170;11.724;2022-10-31T02:02:04;8.30;;;6.20;;
3487;SDS011;38546;48.170;11.724;2022-10-31T02:04:55;16.50;;;7.10;;
3487;SDS011;38546;48.170;11.724;2022-10-31T02:07:58;8.30;;;6.30;;
3487;SDS011;38546;48.170;11.724;2022-10-31T02:11:00;9.10;;;5.60;;
3487;SDS011;38546;48.170;11.724;2022-10-31T02:13:50;11.20;;;6.60;;
3487;SDS011;38546;48.170;11.724;2022-10-31T02:16:40;17.13;;;6.80;;
3487;SDS011;38546;48.170;11.724;2022-10-31T02:19:33;15.90;;;6.50;;
3487;SDS011;38546;48.170;11.724;2022-10-31T02:33:11;8.03;;;4.80;;
3487;SDS011;38546;48.170;11.724;2022-10-31T02:36:24;9.30;;;6.20;;
3487;SDS011;38546;48.170;11.724;2022-10-31T02:39:32;13.97;;;6.53;;
3487;SDS011;38546;48.170;11.724;2022-10-31T02:44:15;8.63;;;5.10;;
3487;SDS011;38546;48.170;11.724;2022-10-31T02:47:27;9.73;;;6.07;;
3487;SDS011;38546;48.170;11.724;2022-10-31T02:50:30;11.30;;;6.10;;
3487;SDS011;38546;48.170;11.724;2022-10-31T02:53:23;7.87;;;5.50;;
3487;SDS011;38546;48.170;11.724;2022-10-31T02:56:17;14.30;;;5.97;;
3487;SDS011;38546;48.170;11.724;2022-10-31T02:59:07;13.53;;;6.87;;
3487;SDS011;38546;48.170;11.724;2022-10-31T03:02:09;9.00;;;5.77;;
3487;SDS011;38546;48.170;11.724;2022-10-31T03:05:41;8.20;;;5.27;;
3487;SDS011;38546;48.170;11.724;2022-10-31T03:08:54;8.60;;;5.73;;
3487;SDS011;38546;48.170;11.724;2022-10-31T03:12:07;7.63;;;4.90;;
3487;SDS011;38546;48.170;11.724;2022-10-31T03:15:12;10.17;;;4.83;;
3487;SDS011;38546;48.170;11.724;2022-10-31T03:18:26;7.70;;;4.73;;
3487;SDS011;38546;48.170;11.724;2022-10-31T03:23:11;8.37;;;5.10;;
3487;SDS011;38546;48.170;11.724;2022-10-31T03:26:05;6.87;;;5.23;;
3487;SDS011;38546;48.170;11.724;2022-10-31T03:29:00;9.37;;;6.17;;
3487;SDS011;38546;48.170;11.724;2022-10-31T03:31:55;6.00;;;4.87;;
3487;SDS011;38546;48.170;11.724;2022-10-31T03:34:53;7.93;;;4.80;;
3487;SDS011;38546;48.170;11.724;2022-10-31T03:37:46;9.57;;;5.27;;
3487;SDS011;38546;48.170;11.724;2022-10-31T03:40:38;8.47;;;4.63;;
3487;SDS011;38546;48.170;11.724;2022-10-31T03:43:33;5.73;;;4.47;;
3487;SDS011;38546;48.170;11.724;2022-10-31T03:46:31;7.70;;;5.20;;
3487;SDS011;38546;48.170;11.724;2022-10-31T03:49:21;6.37;;;4.60;;
3487;SDS011;38546;48.170;11.724;2022-10-31T03:58:57;9.03;;;4.73;;
3487;SDS011;38546;48.170;11.724;2022-10-31T04:02:08;5.90;;;4.97;;
3487;SDS011;38546;48.170;11.724;2022-10-31T04:05:05;8.37;;;4.20;;
3487;SDS011;38546;48.170;11.724;2022-10-31T04:07:57;8.17;;;5.00;;
3487;SDS011;38546;48.170;11.724;2022-10-31T04:10:49;8.30;;;5.17;;
3487;SDS011;38546;48.170;11.724;2022-10-31T04:13:41;11.30;;;5.40;;
3487;SDS011;38546;48.170;11.724;2022-10-31T04:16:34;10.07;;;4.47;;
3487;SDS011;38546;48.170;11.724;2022-10-31T04:19:24;14.90;;;5.67;;
3487;SDS011;38546;48.170;11.724;2022-10-31T04:22:13;6.60;;;4.50;;
3487;SDS011;38546;48.170;11.724;2022-10-31T04:25:03;10.00;;;4.53;;
3487;SDS011;38546;48.170;11.724;2022-10-31T04:27:54;6.73;;;4.80;;
3487;SDS011;38546;48.170;11.724;2022-10-31T04:30:44;10.80;;;5.73;;
3487;SDS011;38546;48.170;11.724;2022-10-31T04:33:33;9.57;;;4.83;;
3487;SDS011;38546;48.170;11.724;2022-10-31T04:36:23;6.40;;;4.07;;
3487;SDS011;38546;48.170;11.724;2022-10-31T04:39:12;10.17;;;5.10;;
3487;SDS011;38546;48.170;11.724;2022-10-31T04:42:01;7.00;;;4.97;;
3487;SDS011;38546;48.170;11.724;2022-10-31T04:44:51;6.97;;;4.70;;
3487;SDS011;38546;48.170;11.724;2022-10-31T04:47:41;5.10;;;4.20;;
3487;SDS011;38546;48.170;11.724;2022-10-31T04:50:30;7.80;;;4.47;;
3487;SDS011;38546;48.170;11.724;2022-10-31T04:53:19;6.63;;;5.30;;
3487;SDS011;38546;48.170;11.724;2022-10-31T04:56:08;5.90;;;4.40;;
3487;SDS011;38546;48.170;11.724;2022-10-31T04:58:57;5.90;;;4.63;;
3487;SDS011;38546;48.170;11.724;2022-10-31T05:01:46;5.57;;;4.73;;
3487;SDS011;38546;48.170;11.724;2022-10-31T05:04:36;5.97;;;4.20;;
3487;SDS011;38546;48.170;11.724;2022-10-31T05:07:25;9.77;;;4.80;;
3487;SDS011;38546;48.170;11.724;2022-10-31T05:10:15;6.00;;;4.30;;
3487;SDS011;38546;48.170;11.724;2022-10-31T05:13:08;6.00;;;4.80;;
3487;SDS011;38546;48.170;11.724;2022-10-31T05:15:57;9.13;;;5.30;;
3487;SDS011;38546;48.170;11.724;2022-10-31T05:18:47;9.23;;;5.50;;
3487;SDS011;38546;48.170;11.724;2022-10-31T05:21:36;9.60;;;5.07;;
3487;SDS011;38546;48.170;11.724;2022-10-31T05:24:26;12.63;;;4.57;;
3487;SDS011;38546;48.170;11.724;2022-10-31T05:27:16;10.10;;;4.77;;
3487;SDS011;38546;48.170;11.724;2022-10-31T05:30:05;5.67;;;4.70;;
3487;SDS011;38546;48.170;11.724;2022-10-31T05:32:57;9.30;;;4.93;;
3487;SDS011;38546;48.170;11.724;2022-10-31T05:35:47;8.10;;;5.07;;
3487;SDS011;38546;48.170;11.724;2022-10-31T05:38:37;8.87;;;4.83;;
3487;SDS011;38546;48.170;11.724;2022-10-31T05:41:26;6.40;;;4.13;;
3487;SDS011;38546;48.170;11.724;2022-10-31T05:44:15;6.17;;;4.30;;
3487;SDS011;38546;48.170;11.724;2022-10-31T05:47:04;5.17;;;3.60;;
3487;SDS011;38546;48.170;11.724;2022-10-31T05:49:53;5.80;;;4.40;;
3487;SDS011;38546;48.170;11.724;2022-10-31T05:52:43;5.90;;;5.00;;
3487;SDS011;38546;48.170;11.724;2022-10-31T05:55:33;4.93;;;4.43;;
3487;SDS011;38546;48.170;11.724;2022-10-31T05:58:21;6.37;;;5.03;;
3487;SDS011;38546;48.170;11.724;2022-10-31T06:01:11;5.07;;;4.57;;
3487;SDS011;38546;48.170;11.724;2022-10-31T06:04:00;6.50;;;5.50;;
3487;SDS011;38546;48.170;11.724;2022-10-31T06:06:49;9.10;;;5.27;;
3487;SDS011;38546;48.170;11.724;2022-10-31T06:09:38;12.03;;;5.20;;
3487;SDS011;38546;48.170;11.724;2022-10-31T06:12:27;6.40;;;4.80;;
3487;SDS011;38546;48.170;11.724;2022-10-31T06:15:17;11.90;;;5.30;;
3487;SDS011;38546;48.170;11.724;2022-10-31T06:18:07;5.33;;;4.53;;
3487;SDS011;38546;48.170;11.724;2022-10-31T06:20:57;13.40;;;5.77;;
3487;SDS011;38546;48.170;11.724;2022-10-31T06:23:47;10.40;;;5.87;;
3487;SDS011;38546;48.170;11.724;2022-10-31T06:26:36;8.97;;;5.27;;
3487;SDS011;38546;48.170;11.724;2022-10-31T06:29:25;7.27;;;5.50;;
3487;SDS011;38546;48.170;11.724;2022-10-31T06:32:14;9.57;;;5.03;;
3487;SDS011;38546;48.170;11.724;2022-10-31T06:35:03;9.00;;;5.03;;
3487;SDS011;38546;48.170;11.724;2022-10-31T06:37:54;8.87;;;6.70;;
3487;SDS011;38546;48.170;11.724;2022-10-31T06:40:43;13.00;;;6.17;;
3487;SDS011;38546;48.170;11.724;2022-10-31T06:43:32;9.73;;;5.80;;
3487;SDS011;38546;48.170;11.724;2022-10-31T06:46:22;7.00;;;4.80;;
3487;SDS011;38546;48.170;11.724;2022-10-31T06:49:11;7.80;;;6.13;;
3487;SDS011;38546;48.170;11.724;2022-10-31T06:52:00;10.23;;;5.10;;
3487;SDS011;38546;48.170;11.724;2022-10-31T06:54:50;7.90;;;5.37;;
3487;SDS011;38546;48.170;11.724;2022-10-31T06:57:39;7.43;;;5.53;;
3487;SDS011;38546;48.170;11.724;2022-10-31T07:00:29;9.33;;;5.40;;
3487;SDS011;38546;48.170;11.724;2022-10-31T07:03:18;10.30;;;5.20;;
3487;SDS011;38546;48.170;11.724;2022-10-31T07:06:08;8.80;;;5.97;;
3487;SDS011;38546;48.170;11.724;2022-10-31T07:08:57;7.07;;;4.63;;
3487;SDS011;38546;48.170;11.724;2022-10-31T07:11:47;8.60;;;4.57;;
3487;SDS011;38546;48.170;11.724;2022-10-31T07:14:36;9.47;;;5.73;;
3487;SDS011;38546;48.170;11.724;2022-10-31T07:17:26;6.00;;;5.20;;
3487;SDS011;38546;48.170;11.724;2022-10-31T07:20:15;7.10;;;5.57;;
3487;SDS011;38546;48.170;11.724;2022-10-31T07:23:04;9.83;;;5.20;;
3487;SDS011;38546;48.170;11.724;2022-10-31T07:25:55;6.10;;;4.47;;
3487;SDS011;38546;48.170;11.724;2022-10-31T07:28:48;6.37;;;4.70;;
3487;SDS011;38546;48.170;11.724;2022-10-31T07:31:37;6.33;;;4.67;;
3487;SDS011;38546;48.170;11.724;2022-10-31T07:34:27;4.60;;;4.17;;
3487;SDS011;38546;48.170;11.724;2022-10-31T07:37:16;8.20;;;4.27;;
3487;SDS011;38546;48.170;11.724;2022-10-31T07:40:06;6.13;;;3.97;;
3487;SDS011;38546;48.170;11.724;2022-10-31T07:42:57;6.27;;;4.53;;
3487;SDS011;38546;48.170;11.724;2022-10-31T07:45:50;8.73;;;4.63;;
3487;SDS011;38546;48.170;11.724;2022-10-31T07:48:41;5.33;;;4.83;;
3487;SDS011;38546;48.170;11.724;2022-10-31T07:51:30;4.53;;;4.13;;
3487;SDS011;38546;48.170;11.724;2022-10-31T07:54:20;12.90;;;4.43;;
3487;SDS011;38546;48.170;11.724;2022-10-31T07:57:10;7.87;;;4.70;;
3487;SDS011;38546;48.170;11.724;2022-10-31T07:59:59;5.10;;;4.60;;
3487;SDS011;38546;48.170;11.724;2022-10-31T08:02:56;6.50;;;5.43;;
3487;SDS011;38546;48.170;11.724;2022-10-31T08:05:56;5.33;;;4.50;;
3487;SDS011;38546;48.170;11.724;2022-10-31T08:08:46;12.70;;;5.40;;
3487;SDS011;38546;48.170;11.724;2022-10-31T08:11:35;8.87;;;4.93;;
3487;SDS011;38546;48.170;11.724;2022-10-31T08:14:24;5.20;;;4.30;;
3487;SDS011;38546;48.170;11.724;2022-10-31T08:17:14;9.47;;;5.77;;
3487;SDS011;38546;48.170;11.724;2022-10-31T08:20:04;8.30;;;5.17;;
3487;SDS011;38546;48.170;11.724;2022-10-31T08:22:58;6.73;;;4.33;;
3487;SDS011;38546;48.170;11.724;2022-10-31T08:25:50;7.70;;;5.20;;
3487;SDS011;38546;48.170;11.724;2022-10-31T08:28:40;7.27;;;5.70;;
3487;SDS011;38546;48.170;11.724;2022-10-31T08:31:30;6.20;;;4.90;;
3487;SDS011;38546;48.170;11.724;2022-10-31T08:34:19;9.63;;;5.27;;
3487;SDS011;38546;48.170;11.724;2022-10-31T08:37:08;8.07;;;4.77;;
3487;SDS011;38546;48.170;11.724;2022-10-31T08:39:58;10.50;;;5.97;;
3487;SDS011;38546;48.170;11.724;2022-10-31T08:42:54;7.27;;;5.07;;
3487;SDS011;38546;48.170;11.724;2022-10-31T08:45:49;9.80;;;5.60;;
3487;SDS011;38546;48.170;11.724;2022-10-31T08:48:39;7.87;;;5.70;;
3487;SDS011;38546;48.170;11.724;2022-10-31T08:51:28;10.90;;;6.00;;
3487;SDS011;38546;48.170;11.724;2022-10-31T08:54:18;8.30;;;5.60;;
3487;SDS011;38546;48.170;11.724;2022-10-31T08:57:07;9.00;;;5.67;;
3487;SDS011;38546;48.170;11.724;2022-10-31T08:59:57;11.77;;;5.77;;
3487;SDS011;38546;48.170;11.724;2022-10-31T09:02:47;9.70;;;4.70;;
3487;SDS011;38546;48.170;11.724;2022-10-31T09:05:36;13.73;;;5.77;;
3487;SDS011;38546;48.170;11.724;2022-10-31T09:08:28;13.20;;;6.30;;
3487;SDS011;38546;48.170;11.724;2022-10-31T09:11:19;17.33;;;7.17;;
3487;SDS011;38546;48.170;11.724;2022-10-31T09:14:09;10.97;;;6.00;;
3487;SDS011;38546;48.170;11.724;2022-10-31T09:16:58;10.03;;;6.03;;
3487;SDS011;38546;48.170;11.724;2022-10-31T09:19:47;11.60;;;6.07;;
3487;SDS011;38546;48.170;11.724;2022-10-31T09:22:37;13.13;;;7.23;;
3487;SDS011;38546;48.170;11.724;2022-10-31T09:25:27;9.30;;;6.50;;
3487;SDS011;38546;48.170;11.724;2022-10-31T09:28:18;10.70;;;5.90;;
3487;SDS011;38546;48.170;11.724;2022-10-31T09:31:09;14.53;;;6.47;;
3487;SDS011;38546;48.170;11.724;2022-10-31T09:33:59;6.80;;;5.80;;
3487;SDS011;38546;48.170;11.724;2022-10-31T09:36:48;9.90;;;5.70;;
3487;SDS011;38546;48.170;11.724;2022-10-31T09:39:37;8.00;;;5.27;;
3487;SDS011;38546;48.170;11.724;2022-10-31T09:42:42;10.07;;;5.80;;
3487;SDS011;38546;48.170;11.724;2022-10-31T09:46:03;9.00;;;5.23;;
3487;SDS011;38546;48.170;11.724;2022-10-31T09:54:42;6.60;;;4.53;;
3487;SDS011;38546;48.170;11.724;2022-10-31T09:57:44;5.73;;;3.60;;
3487;SDS011;38546;48.170;11.724;2022-10-31T10:00:34;5.00;;;4.50;;
3487;SDS011;38546;48.170;11.724;2022-10-31T10:03:41;6.43;;;4.13;;
3487;SDS011;38546;48.170;11.724;2022-10-31T10:06:35;8.07;;;4.30;;
3487;SDS011;38546;48.170;11.724;2022-10-31T10:09:31;6.27;;;3.87;;
3487;SDS011;38546;48.170;11.724;2022-10-31T10:12:25;6.00;;;3.87;;
3487;SDS011;38546;48.170;11.724;2022-10-31T10:32:19;6.70;;;3.80;;
3487;SDS011;38546;48.170;11.724;2022-10-31T10:36:16;4.60;;;3.10;;
3487;SDS011;38546;48.170;11.724;2022-10-31T10:39:41;6.67;;;3.53;;
3487;SDS011;38546;48.170;11.724;2022-10-31T10:42:34;5.97;;;3.60;;
3487;SDS011;38546;48.170;11.724;2022-10-31T10:45:43;5.80;;;3.87;;
3487;SDS011;38546;48.170;11.724;2022-10-31T10:50:34;5.37;;;4.60;;
3487;SDS011;38546;48.170;11.724;2022-10-31T10:53:41;4.67;;;2.93;;
3487;SDS011;38546;48.170;11.724;2022-10-31T11:01:22;4.23;;;3.83;;
3487;SDS011;38546;48.170;11.724;2022-10-31T11:04:16;4.80;;;3.70;;
3487;SDS011;38546;48.170;11.724;2022-10-31T11:07:21;4.33;;;3.93;;
3487;SDS011;38546;48.170;11.724;2022-10-31T11:10:12;4.67;;;3.53;;
3487;SDS011;38546;48.170;11.724;2022-10-31T11:13:05;6.43;;;4.40;;
3487;SDS011;38546;48.170;11.724;2022-10-31T11:16:14;7.53;;;4.80;;
3487;SDS011;38546;48.170;11.724;2022-10-31T11:19:22;10.90;;;4.57;;
3487;SDS011;38546;48.170;11.724;2022-10-31T11:22:16;4.83;;;3.97;;
3487;SDS011;38546;48.170;11.724;2022-10-31T11:25:22;4.23;;;3.20;;
3487;SDS011;38546;48.170;11.724;2022-10-31T11:28:13;3.53;;;3.23;;
3487;SDS011;38546;48.170;11.724;2022-10-31T11:31:07;4.50;;;4.07;;
3487;SDS011;38546;48.170;11.724;2022-10-31T11:34:02;6.60;;;4.03;;
3487;SDS011;38546;48.170;11.724;2022-10-31T11:36:57;6.40;;;4.07;;
3487;SDS011;38546;48.170;11.724;2022-10-31T11:40:03;7.37;;;3.60;;
3487;SDS011;38546;48.170;11.724;2022-10-31T11:42:56;5.37;;;3.93;;
3487;SDS011;38546;48.170;11.724;2022-10-31T11:45:47;5.00;;;3.13;;
3487;SDS011;38546;48.170;11.724;2022-10-31T11:48:37;4.57;;;4.00;;
3487;SDS011;38546;48.170;11.724;2022-10-31T11:51:29;5.63;;;3.40;;
3487;SDS011;38546;48.170;11.724;2022-10-31T11:54:29;9.63;;;4.50;;
3487;SDS011;38546;48.170;11.724;2022-10-31T11:57:42;6.40;;;4.33;;
3487;SDS011;38546;48.170;11.724;2022-10-31T12:00:38;5.33;;;4.40;;
3487;SDS011;38546;48.170;11.724;2022-10-31T12:03:43;7.53;;;4.50;;
3487;SDS011;38546;48.170;11.724;2022-10-31T12:06:54;5.23;;;3.70;;
3487;SDS011;38546;48.170;11.724;2022-10-31T12:09:46;5.77;;;4.00;;
3487;SDS011;38546;48.170;11.724;2022-10-31T12:12:45;11.17;;;3.70;;
3487;SDS011;38546;48.170;11.724;2022-10-31T12:16:38;5.33;;;3.90;;
3487;SDS011;38546;48.170;11.724;2022-10-31T12:23:54;4.37;;;3.93;;
3487;SDS011;38546;48.170;11.724;2022-10-31T12:29:48;10.33;;;4.63;;
3487;SDS011;38546;48.170;11.724;2022-10-31T12:39:36;8.13;;;4.27;;
3487;SDS011;38546;48.170;11.724;2022-10-31T12:44:40;4.70;;;4.27;;
3487;SDS011;38546;48.170;11.724;2022-10-31T12:48:53;9.50;;;4.73;;
3487;SDS011;38546;48.170;11.724;2022-10-31T12:53:22;7.10;;;3.73;;
3487;SDS011;38546;48.170;11.724;2022-10-31T13:02:00;13.23;;;6.87;;
3487;SDS011;38546;48.170;11.724;2022-10-31T13:08:55;10.73;;;6.03;;
3487;SDS011;38546;48.170;11.724;2022-10-31T13:11:51;11.00;;;7.50;;
3487;SDS011;38546;48.170;11.724;2022-10-31T13:14:54;14.13;;;7.10;;
3487;SDS011;38546;48.170;11.724;2022-10-31T13:18:03;10.17;;;7.20;;
3487;SDS011;38546;48.170;11.724;2022-10-31T13:21:02;18.50;;;7.03;;
3487;SDS011;38546;48.170;11.724;2022-10-31T13:24:00;14.43;;;7.70;;
3487;SDS011;38546;48.170;11.724;2022-10-31T13:26:59;14.20;;;7.20;;
3487;SDS011;38546;48.170;11.724;2022-10-31T13:30:20;11.67;;;7.27;;
3487;SDS011;38546;48.170;11.724;2022-10-31T13:33:23;13.03;;;7.20;;
3487;SDS011;38546;48.170;11.724;2022-10-31T13:36:33;14.67;;;8.50;;
3487;SDS011;38546;48.170;11.724;2022-10-31T13:39:46;14.50;;;8.00;;
3487;SDS011;38546;48.170;11.724;2022-10-31T13:44:13;15.57;;;7.80;;
3487;SDS011;38546;48.170;11.724;2022-10-31T13:47:27;14.27;;;8.27;;
3487;SDS011;38546;48.170;11.724;2022-10-31T13:50:21;12.93;;;7.87;;
3487;SDS011;38546;48.170;11.724;2022-10-31T13:53:21;14.20;;;8.57;;
3487;SDS011;38546;48.170;11.724;2022-10-31T13:56:27;10.00;;;7.13;;
3487;SDS011;38546;48.170;11.724;2022-10-31T13:59:23;11.80;;;8.40;;
3487;SDS011;38546;48.170;11.724;2022-10-31T14:02:16;21.03;;;10.57;;
3487;SDS011;38546;48.170;11.724;2022-10-31T14:05:24;19.50;;;10.53;;
3487;SDS011;38546;48.170;11.724;2022-10-31T14:08:21;17.63;;;11.13;;
3487;SDS011;38546;48.170;11.724;2022-10-31T14:11:21;21.80;;;11.47;;
3487;SDS011;38546;48.170;11.724;2022-10-31T14:14:16;19.23;;;10.70;;
3487;SDS011;38546;48.170;11.724;2022-10-31T14:17:12;22.70;;;10.40;;
3487;SDS011;38546;48.170;11.724;2022-10-31T14:20:42;15.83;;;10.50;;
3487;SDS011;38546;48.170;11.724;2022-10-31T14:23:37;20.43;;;12.13;;
3487;SDS011;38546;48.170;11.724;2022-10-31T14:26:38;26.77;;;12.20;;
3487;SDS011;38546;48.170;11.724;2022-10-31T14:29:29;25.10;;;12.63;;
3487;SDS011;38546;48.170;11.724;2022-10-31T14:32:24;23.43;;;11.90;;
3487;SDS011;38546;48.170;11.724;2022-10-31T14:35:15;29.67;;;13.27;;
3487;SDS011;38546;48.170;11.724;2022-10-31T14:38:13;19.57;;;12.10;;
3487;SDS011;38546;48.170;11.724;2022-10-31T14:41:32;21.33;;;12.00;;
3487;SDS011;38546;48.170;11.724;2022-10-31T14:49:18;21.13;;;12.77;;
3487;SDS011;38546;48.170;11.724;2022-10-31T14:54:10;21.30;;;14.03;;
3487;SDS011;38546;48.170;11.724;2022-10-31T14:57:05;21.27;;;11.90;;
3487;SDS011;38546;48.170;11.724;2022-10-31T15:00:15;20.17;;;13.27;;
3487;SDS011;38546;48.170;11.724;2022-10-31T15:03:14;18.93;;;12.43;;
3487;SDS011;38546;48.170;11.724;2022-10-31T15:06:10;18.30;;;12.13;;
3487;SDS011;38546;48.170;11.724;2022-10-31T15:09:20;24.93;;;13.47;;
3487;SDS011;38546;48.170;11.724;2022-10-31T15:12:22;16.50;;;11.23;;
3487;SDS011;38546;48.170;11.724;2022-10-31T15:15:24;19.70;;;11.60;;
3487;SDS011;38546;48.170;11.724;2022-10-31T15:18:20;16.57;;;12.10;;
3487;SDS011;38546;48.170;11.724;2022-10-31T15:21:16;15.40;;;11.10;;
3487;SDS011;38546;48.170;11.724;2022-10-31T15:24:10;13.60;;;11.00;;
3487;SDS011;38546;48.170;11.724;2022-10-31T15:27:04;23.80;;;14.17;;
3487;SDS011;38546;48.170;11.724;2022-10-31T15:30:02;22.43;;;11.37;;
3487;SDS011;38546;48.170;11.724;2022-10-31T15:33:22;22.27;;;12.73;;
3487;SDS011;38546;48.170;11.724;2022-10-31T15:36:28;20.53;;;12.13;;
3487;SDS011;38546;48.170;11.724;2022-10-31T15:39:18;19.50;;;11.67;;
3487;SDS011;38546;48.170;11.724;2022-10-31T15:42:20;14.13;;;10.70;;
3487;SDS011;38546;48.170;11.724;2022-10-31T15:45:24;17.60;;;11.53;;
3487;SDS011;38546;48.170;11.724;2022-10-31T15:48:21;15.83;;;9.50;;
3487;SDS011;38546;48.170;11.724;2022-10-31T15:51:11;23.43;;;10.97;;
3487;SDS011;38546;48.170;11.724;2022-10-31T15:54:01;27.07;;;13.23;;
3487;SDS011;38546;48.170;11.724;2022-10-31T15:56:51;14.43;;;10.20;;
3487;SDS011;38546;48.170;11.724;2022-10-31T15:59:41;16.97;;;10.03;;
3487;SDS011;38546;48.170;11.724;2022-10-31T16:02:35;16.83;;;10.67;;
3487;SDS011;38546;48.170;11.724;2022-10-31T16:05:25;13.70;;;9.20;;
3487;SDS011;38546;48.170;11.724;2022-10-31T16:13:12;17.73;;;11.33;;
3487;SDS011;38546;48.170;11.724;2022-10-31T16:16:03;15.27;;;11.30;;
3487;SDS011;38546;48.170;11.724;2022-10-31T16:19:02;15.33;;;10.93;;
3487;SDS011;38546;48.170;11.724;2022-10-31T16:22:01;16.57;;;11.17;;
3487;SDS011;38546;48.170;11.724;2022-10-31T16:25:03;18.70;;;13.30;;
3487;SDS011;38546;48.170;11.724;2022-10-31T16:28:38;20.60;;;12.73;;
3487;SDS011;38546;48.170;11.724;2022-10-31T16:31:28;14.33;;;10.90;;
3487;SDS011;38546;48.170;11.724;2022-10-31T16:34:24;13.40;;;9.13;;
3487;SDS011;38546;48.170;11.724;2022-10-31T16:37:13;16.40;;;9.73;;
3487;SDS011;38546;48.170;11.724;2022-10-31T16:40:03;18.67;;;10.40;;
3487;SDS011;38546;48.170;11.724;2022-10-31T16:42:53;26.20;;;12.83;;
3487;SDS011;38546;48.170;11.724;2022-10-31T16:45:49;18.73;;;11.47;;
3487;SDS011;38546;48.170;11.724;2022-10-31T16:48:39;17.57;;;10.20;;
3487;SDS011;38546;48.170;11.724;2022-10-31T16:51:28;16.93;;;11.10;;
3487;SDS011;38546;48.170;11.724;2022-10-31T16:54:17;17.80;;;10.60;;
3487;SDS011;38546;48.170;11.724;2022-10-31T16:57:06;19.50;;;11.03;;
3487;SDS011;38546;48.170;11.724;2022-10-31T17:00:03;15.50;;;10.87;;
3487;SDS011;38546;48.170;11.724;2022-10-31T17:02:56;18.23;;;10.53;;
3487;SDS011;38546;48.170;11.724;2022-10-31T17:05:45;18.83;;;11.07;;
3487;SDS011;38546;48.170;11.724;2022-10-31T17:08:34;19.53;;;10.53;;
3487;SDS011;38546;48.170;11.724;2022-10-31T17:11:24;15.03;;;10.53;;
3487;SDS011;38546;48.170;11.724;2022-10-31T17:14:14;17.70;;;10.83;;
3487;SDS011;38546;48.170;11.724;2022-10-31T17:17:05;14.10;;;10.07;;
3487;SDS011;38546;48.170;11.724;2022-10-31T17:19:54;21.13;;;11.80;;
3487;SDS011;38546;48.170;11.724;2022-10-31T17:22:43;17.23;;;10.97;;
3487;SDS011;38546;48.170;11.724;2022-10-31T17:25:32;18.90;;;12.33;;
3487;SDS011;38546;48.170;11.724;2022-10-31T17:28:23;16.53;;;10.43;;
3487;SDS011;38546;48.170;11.724;2022-10-31T17:31:26;14.57;;;9.23;;
3487;SDS011;38546;48.170;11.724;2022-10-31T17:34:17;11.50;;;9.07;;
3487;SDS011;38546;48.170;11.724;2022-10-31T17:37:08;12.93;;;8.90;;
3487;SDS011;38546;48.170;11.724;2022-10-31T17:39:59;12.40;;;9.00;;
3487;SDS011;38546;48.170;11.724;2022-10-31T17:42:51;14.83;;;10.00;;
3487;SDS011;38546;48.170;11.724;2022-10-31T17:45:45;15.00;;;10.93;;
3487;SDS011;38546;48.170;11.724;2022-10-31T17:48:35;12.20;;;10.20;;
3487;SDS011;38546;48.170;11.724;2022-10-31T17:51:25;13.40;;;10.07;;
3487;SDS011;38546;48.170;11.724;2022-10-31T17:54:14;15.87;;;11.30;;
3487;SDS011;38546;48.170;11.724;2022-10-31T17:57:06;20.13;;;11.00;;
3487;SDS011;38546;48.170;11.724;2022-10-31T17:59:55;17.50;;;10.33;;
3487;SDS011;38546;48.170;11.724;2022-10-31T18:02:44;13.50;;;9.53;;
3487;SDS011;38546;48.170;11.724;2022-10-31T18:05:33;20.20;;;10.53;;
3487;SDS011;38546;48.170;11.724;2022-10-31T18:08:23;15.63;;;11.47;;
3487;SDS011;38546;48.170;11.724;2022-10-31T18:11:18;14.10;;;10.40;;
3487;SDS011;38546;48.170;11.724;2022-10-31T18:14:09;15.90;;;11.37;;
3487;SDS011;38546;48.170;11.724;2022-10-31T18:16:59;10.67;;;8.87;;
3487;SDS011;38546;48.170;11.724;2022-10-31T18:19:48;24.90;;;11.90;;
3487;SDS011;38546;48.170;11.724;2022-10-31T18:22:37;15.63;;;10.90;;
3487;SDS011;38546;48.170;11.724;2022-10-31T18:25:27;24.27;;;14.77;;
3487;SDS011;38546;48.170;11.724;2022-10-31T18:28:16;39.87;;;21.60;;
3487;SDS011;38546;48.170;11.724;2022-10-31T18:31:05;38.53;;;24.47;;
3487;SDS011;38546;48.170;11.724;2022-10-31T18:33:55;47.33;;;27.20;;
3487;SDS011;38546;48.170;11.724;2022-10-31T18:36:45;33.50;;;21.53;;
3487;SDS011;38546;48.170;11.724;2022-10-31T18:39:35;30.93;;;19.00;;
3487;SDS011;38546;48.170;11.724;2022-10-31T18:42:24;21.57;;;14.93;;
3487;SDS011;38546;48.170;11.724;2022-10-31T18:45:14;21.57;;;13.30;;
3487;SDS011;38546;48.170;11.724;2022-10-31T18:48:04;28.27;;;14.20;;
3487;SDS011;38546;48.170;11.724;2022-10-31T18:50:53;23.57;;;15.37;;
3487;SDS011;38546;48.170;11.724;2022-10-31T18:53:49;35.10;;;18.17;;
3487;SDS011;38546;48.170;11.724;2022-10-31T18:57:14;24.30;;;16.80;;